createdAt,value
2019-06-08T00:02:26.269Z,1.22
2019-06-08T00:04:56.903Z,1.95
2019-06-08T00:07:27.515Z,2.02
2019-06-08T00:09:58.351Z,2.27
2019-06-08T00:12:28.906Z,3.10
2019-06-08T00:14:59.567Z,2.52
2019-06-08T00:17:38.618Z,1.32
2019-06-08T00:20:03.691Z,2.33
2019-06-08T00:22:35.205Z,2.65
2019-06-08T00:25:06.287Z,2.10
2019-06-08T00:27:37.441Z,3.22
2019-06-08T00:30:09.576Z,3.02
2019-06-08T00:32:41.051Z,5.80
2019-06-08T00:35:12.592Z,4.62
2019-06-08T00:37:43.306Z,2.60
2019-06-08T00:40:14.794Z,3.83
2019-06-08T00:42:45.620Z,3.52
2019-06-08T00:45:17.308Z,2.75
2019-06-08T00:47:48.410Z,1.67
2019-06-08T00:50:20.825Z,5.80
2019-06-08T00:52:51.724Z,2.85
2019-06-08T00:55:23.672Z,3.77
2019-06-08T00:57:54.730Z,3.70
2019-06-08T01:00:26.778Z,2.40
2019-06-08T01:02:57.646Z,2.75
2019-06-08T01:05:28.476Z,4.72
2019-06-08T01:07:59.949Z,3.52
2019-06-08T01:10:30.730Z,2.00
2019-06-08T01:13:01.387Z,3.00
2019-06-08T01:15:34.318Z,3.75
2019-06-08T01:18:04.753Z,2.47
2019-06-08T01:20:35.524Z,4.22
2019-06-08T01:23:06.362Z,3.35
2019-06-08T01:25:37.113Z,3.15
2019-06-08T01:28:08.562Z,3.10
2019-06-08T01:30:39.252Z,3.33
2019-06-08T01:33:11.033Z,2.83
2019-06-08T01:35:41.851Z,1.60
2019-06-08T01:38:12.382Z,5.03
2019-06-08T01:40:42.959Z,4.20
2019-06-08T01:43:13.740Z,4.28
2019-06-08T01:45:44.632Z,2.70
2019-06-08T01:48:19.971Z,3.45
2019-06-08T01:50:47.837Z,4.35
2019-06-08T01:53:18.520Z,4.92
2019-06-08T01:55:49.090Z,6.12
2019-06-08T01:58:20.111Z,4.25
2019-06-08T02:00:50.720Z,2.62
2019-06-08T02:03:22.069Z,8.13
2019-06-08T02:05:52.687Z,5.25
2019-06-08T02:08:24.393Z,4.87
2019-06-08T02:10:55.317Z,4.97
2019-06-08T02:13:26.859Z,3.70
2019-06-08T02:15:57.625Z,5.58
2019-06-08T02:18:40.093Z,4.28
2019-06-08T02:21:00.787Z,3.85
2019-06-08T02:23:31.457Z,5.85
2019-06-08T02:26:02.438Z,2.55
2019-06-08T02:28:33.654Z,4.40
2019-06-08T02:31:06.368Z,2.22
2019-06-08T02:33:37.371Z,1.65
2019-06-08T02:36:09.421Z,4.28
2019-06-08T02:38:40.063Z,5.10
2019-06-08T02:41:10.760Z,3.77
2019-06-08T02:43:41.446Z,4.85
2019-06-08T02:46:12.108Z,1.47
2019-06-08T02:49:02.822Z,1.67
2019-06-08T02:51:15.231Z,3.05
2019-06-08T02:53:46.472Z,3.58
2019-06-08T02:56:18.004Z,2.50
2019-06-08T02:58:51.719Z,2.98
2019-06-08T03:01:23.415Z,2.35
2019-06-08T03:03:56.399Z,2.25
2019-06-08T03:06:30.360Z,2.52
2019-06-08T03:09:05.363Z,2.33
2019-06-08T03:11:38.981Z,2.47
2019-06-08T03:14:09.943Z,1.75
2019-06-08T03:16:41.635Z,2.22
2019-06-08T03:19:21.719Z,3.15
2019-06-08T03:21:45.752Z,2.33
2019-06-08T03:24:16.352Z,3.02
2019-06-08T03:26:47.930Z,3.87
2019-06-08T03:29:18.602Z,1.90
2019-06-08T03:31:55.612Z,3.00
2019-06-08T03:34:22.818Z,2.33
2019-06-08T03:36:57.379Z,2.25
2019-06-08T03:39:28.075Z,6.28
2019-06-08T03:41:58.862Z,5.03
2019-06-08T03:44:29.510Z,4.80
2019-06-08T03:47:00.527Z,2.47
2019-06-08T03:49:42.761Z,1.60
2019-06-08T03:52:04.307Z,5.08
2019-06-08T03:54:36.049Z,3.27
2019-06-08T03:57:07.515Z,3.50
2019-06-08T03:59:38.714Z,2.33
2019-06-08T04:02:10.621Z,3.25
2019-06-08T04:04:41.852Z,5.58
2019-06-08T04:07:12.935Z,5.60
2019-06-08T04:09:45.823Z,6.00
2019-06-08T04:12:18.805Z,5.33
2019-06-08T04:14:50.450Z,5.55
2019-06-08T04:17:21.296Z,5.42
2019-06-08T04:20:09.583Z,8.15
2019-06-08T04:22:24.222Z,2.85
2019-06-08T04:24:54.787Z,4.45
2019-06-08T04:27:25.489Z,2.92
2019-06-08T04:29:55.945Z,4.22
2019-06-08T04:32:26.432Z,3.72
2019-06-08T04:34:57.731Z,6.03
2019-06-08T04:37:29.023Z,3.85
2019-06-08T04:39:59.706Z,2.20
2019-06-08T04:42:30.204Z,5.30
2019-06-08T04:45:00.858Z,3.15
2019-06-08T04:47:33.706Z,2.87
2019-06-08T04:50:21.695Z,4.55
2019-06-08T04:52:40.890Z,2.30
2019-06-08T04:55:11.792Z,4.12
2019-06-08T04:57:43.364Z,2.72
2019-06-08T05:00:15.680Z,4.42
2019-06-08T05:02:48.694Z,2.98
2019-06-08T05:05:18.695Z,2.00
2019-06-08T05:07:50.305Z,3.02
2019-06-08T05:10:21.172Z,2.90
2019-06-08T05:12:53.917Z,2.35
2019-06-08T05:15:25.014Z,2.25
2019-06-08T05:17:55.615Z,2.52
2019-06-08T05:20:38.478Z,2.47
2019-06-08T05:22:58.607Z,4.05
2019-06-08T05:25:29.241Z,2.58
2019-06-08T05:27:59.963Z,2.72
2019-06-08T05:30:30.640Z,2.83
2019-06-08T05:33:03.206Z,4.95
2019-06-08T05:35:33.881Z,3.20
2019-06-08T05:38:06.058Z,2.52
2019-06-08T05:40:36.839Z,2.58
2019-06-08T05:43:07.498Z,2.77
2019-06-08T05:45:39.508Z,3.42
2019-06-08T05:48:10.631Z,3.22
2019-06-08T05:50:56.833Z,2.98
2019-06-08T05:53:13.838Z,3.17
2019-06-08T05:55:44.466Z,4.92
2019-06-08T05:58:15.526Z,3.30
2019-06-08T06:00:46.406Z,6.78
2019-06-08T06:03:17.425Z,4.30
2019-06-08T06:05:48.980Z,4.72
2019-06-08T06:08:20.003Z,4.83
2019-06-08T06:10:51.420Z,2.67
2019-06-08T06:13:22.757Z,2.92
2019-06-08T06:15:53.406Z,4.45
2019-06-08T06:18:27.844Z,4.53
2019-06-08T06:21:10.544Z,6.17
2019-06-08T06:23:30.864Z,6.55
2019-06-08T06:26:02.133Z,7.10
2019-06-08T06:28:33.686Z,2.62
2019-06-08T06:31:04.388Z,4.08
2019-06-08T06:33:35.065Z,3.50
2019-06-08T06:36:05.825Z,6.00
2019-06-08T06:38:38.098Z,4.10
2019-06-08T06:41:08.818Z,3.72
2019-06-08T06:43:39.450Z,4.40
2019-06-08T06:46:10.058Z,5.58
2019-06-08T06:48:41.984Z,4.17
2019-06-08T06:51:25.693Z,3.47
2019-06-08T06:53:46.591Z,3.77
2019-06-08T06:56:17.280Z,6.83
2019-06-08T06:58:49.380Z,4.35
2019-06-08T07:01:20.209Z,9.10
2019-06-08T07:03:52.175Z,6.12
2019-06-08T07:06:22.854Z,6.58
2019-06-08T07:08:54.585Z,5.22
2019-06-08T07:11:25.533Z,4.70
2019-06-08T07:13:56.320Z,4.10
2019-06-08T07:16:27.664Z,8.23
2019-06-08T07:18:58.777Z,4.47
2019-06-08T07:21:41.265Z,5.60
2019-06-08T07:24:01.894Z,5.50
2019-06-08T07:26:32.831Z,8.48
2019-06-08T07:29:03.657Z,7.03
2019-06-08T07:31:34.313Z,6.30
2019-06-08T07:34:05.382Z,5.53
2019-06-08T07:36:35.907Z,4.03
2019-06-08T07:39:08.176Z,7.45
2019-06-08T07:41:39.448Z,4.85
2019-06-08T07:44:10.207Z,5.70
2019-06-08T07:46:40.898Z,9.75
2019-06-08T07:49:11.459Z,4.25
2019-06-08T07:51:57.820Z,4.37
2019-06-08T07:54:14.869Z,7.00
2019-06-08T07:56:46.247Z,7.60
2019-06-08T07:59:16.871Z,6.40
2019-06-08T08:01:47.784Z,10.25
2019-06-08T08:04:19.638Z,7.58
2019-06-08T08:06:50.402Z,5.92
2019-06-08T08:09:21.041Z,6.45
2019-06-08T08:11:52.862Z,6.92
2019-06-08T08:14:23.611Z,7.50
2019-06-08T08:16:55.199Z,5.65
2019-06-08T08:19:26.675Z,4.33
2019-06-08T08:22:03.178Z,7.00
2019-06-08T08:24:30.565Z,4.55
2019-06-08T08:27:03.598Z,3.77
2019-06-08T08:29:33.548Z,4.28
2019-06-08T08:32:04.706Z,5.25
2019-06-08T08:34:38.200Z,3.90
2019-06-08T08:37:09.619Z,3.77
2019-06-08T08:39:41.013Z,4.37
2019-06-08T08:42:13.426Z,5.05
2019-06-08T08:44:44.012Z,3.70
2019-06-08T08:47:14.704Z,6.97
2019-06-08T08:49:45.246Z,4.15
2019-06-08T08:52:17.494Z,7.30
2019-06-08T08:54:50.753Z,5.12
2019-06-08T08:57:21.131Z,4.22
2019-06-08T08:59:53.593Z,7.42
2019-06-08T09:02:24.132Z,5.10
2019-06-08T09:04:57.957Z,5.97
2019-06-08T09:07:27.949Z,4.83
2019-06-08T09:10:01.509Z,6.70
2019-06-08T09:12:31.209Z,4.33
2019-06-08T09:15:03.752Z,5.22
2019-06-08T09:17:34.454Z,5.47
2019-06-08T09:20:11.027Z,6.37
2019-06-08T09:22:52.460Z,7.62
2019-06-08T09:25:13.519Z,5.80
2019-06-08T09:27:43.155Z,6.10
2019-06-08T09:30:14.171Z,4.87
2019-06-08T09:32:44.842Z,8.18
2019-06-08T09:35:18.732Z,6.25
2019-06-08T09:37:48.735Z,9.90
2019-06-08T09:40:19.486Z,6.87
2019-06-08T09:42:57.234Z,8.10
2019-06-08T09:45:23.842Z,9.25
2019-06-08T09:47:55.423Z,11.90
2019-06-08T09:50:27.809Z,8.95
2019-06-08T09:53:14.942Z,7.75
2019-06-08T09:55:30.913Z,12.55
2019-06-08T09:58:05.030Z,10.53
2019-06-08T10:00:33.874Z,11.12
2019-06-08T10:03:06.500Z,9.60
2019-06-08T10:05:38.892Z,10.28
2019-06-08T10:08:09.972Z,15.23
2019-06-08T10:10:42.429Z,9.68
2019-06-08T10:13:12.904Z,14.35
2019-06-08T10:15:43.685Z,12.70
2019-06-08T10:18:17.527Z,15.43
2019-06-08T10:20:48.253Z,15.90
2019-06-08T10:23:30.835Z,9.30
2019-06-08T10:25:52.345Z,11.78
2019-06-08T10:28:23.013Z,13.00
2019-06-08T10:30:55.424Z,10.00
2019-06-08T10:33:28.195Z,9.38
2019-06-08T10:36:01.748Z,11.70
2019-06-08T10:38:31.252Z,16.60
2019-06-08T10:41:12.046Z,9.48
2019-06-08T10:43:38.275Z,9.20
2019-06-08T10:46:14.729Z,11.93
2019-06-08T10:48:40.710Z,10.38
2019-06-08T10:51:13.078Z,9.45
2019-06-08T10:53:48.385Z,9.30
2019-06-08T10:56:18.651Z,8.35
2019-06-08T10:58:49.776Z,10.18
2019-06-08T11:01:20.704Z,9.35
2019-06-08T11:03:53.131Z,6.87
2019-06-08T11:06:24.122Z,5.33
2019-06-08T11:08:54.881Z,8.25
2019-06-08T11:11:28.377Z,10.55
2019-06-08T11:14:00.055Z,8.25
2019-06-08T11:16:30.558Z,12.53
2019-06-08T11:19:03.037Z,6.97
2019-06-08T11:21:33.768Z,10.70
2019-06-08T11:24:13.267Z,8.00
2019-06-08T11:26:39.968Z,5.35
2019-06-08T11:29:12.223Z,6.97
2019-06-08T11:31:42.174Z,8.30
2019-06-08T11:34:12.921Z,11.48
2019-06-08T11:36:43.678Z,7.28
2019-06-08T11:39:15.195Z,9.13
2019-06-08T11:41:48.367Z,8.35
2019-06-08T11:44:19.310Z,8.83
2019-06-08T11:46:49.927Z,15.05
2019-06-08T11:49:20.705Z,11.25
2019-06-08T11:51:51.339Z,12.07
2019-06-08T11:54:35.454Z,12.75
2019-06-08T11:56:57.571Z,19.07
2019-06-08T11:59:29.633Z,10.30
2019-06-08T12:02:05.574Z,12.20
2019-06-08T12:04:38.395Z,14.58
2019-06-08T12:07:10.782Z,14.47
2019-06-08T12:09:41.267Z,13.65
2019-06-08T12:12:16.190Z,15.10
2019-06-08T12:14:44.106Z,13.22
2019-06-08T12:17:19.188Z,14.10
2019-06-08T12:19:47.662Z,15.83
2019-06-08T12:22:21.517Z,14.83
2019-06-08T12:25:01.927Z,15.05
2019-06-08T12:27:36.252Z,12.50
2019-06-08T12:30:11.256Z,15.25
2019-06-08T12:32:38.686Z,19.98
2019-06-08T12:35:12.122Z,16.02
2019-06-08T12:37:42.386Z,18.57
2019-06-08T12:40:14.553Z,16.87
2019-06-08T12:42:45.517Z,22.40
2019-06-08T12:45:20.002Z,22.48
2019-06-08T12:47:49.804Z,20.85
2019-06-08T12:50:20.554Z,21.25
2019-06-08T12:52:51.113Z,21.00
2019-06-08T12:55:24.862Z,18.62
2019-06-08T12:57:54.865Z,19.12
2019-06-08T13:00:28.078Z,19.52
2019-06-08T13:02:59.651Z,20.97
2019-06-08T13:05:30.385Z,28.87
2019-06-08T13:08:01.642Z,18.55
2019-06-08T13:10:32.177Z,21.15
2019-06-08T13:13:02.618Z,16.50
2019-06-08T13:15:33.179Z,21.70
2019-06-08T13:18:03.834Z,18.15
2019-06-08T13:20:34.706Z,20.27
2019-06-08T13:23:08.235Z,19.70
2019-06-08T13:25:43.012Z,18.25
2019-06-08T13:28:15.125Z,19.65
2019-06-08T13:30:42.980Z,17.15
2019-06-08T13:33:14.078Z,20.60
2019-06-08T13:35:44.886Z,20.82
2019-06-08T13:38:17.333Z,28.80
2019-06-08T13:40:48.549Z,19.62
2019-06-08T13:43:21.214Z,17.23
2019-06-08T13:45:52.813Z,24.07
2019-06-08T13:48:23.492Z,18.17
2019-06-08T13:50:55.204Z,21.52
2019-06-08T13:53:31.488Z,20.05
2019-06-08T13:55:59.137Z,18.07
2019-06-08T13:58:33.507Z,16.05
2019-06-08T14:01:02.735Z,20.82
2019-06-08T14:03:33.331Z,26.93
2019-06-08T14:06:03.964Z,22.35
2019-06-08T14:08:35.534Z,23.00
2019-06-08T14:11:08.152Z,18.20
2019-06-08T14:13:38.537Z,19.05
2019-06-08T14:16:11.537Z,20.35
2019-06-08T14:18:41.301Z,19.77
2019-06-08T14:21:12.364Z,19.85
2019-06-08T14:23:43.030Z,29.67
2019-06-08T14:26:13.598Z,20.52
2019-06-08T14:28:44.234Z,23.50
2019-06-08T14:31:14.917Z,24.18
2019-06-08T14:33:48.287Z,16.32
2019-06-08T14:36:22.424Z,20.90
2019-06-08T14:38:51.843Z,18.67
2019-06-08T14:41:24.522Z,17.80
2019-06-08T14:43:55.299Z,25.00
2019-06-08T14:46:28.627Z,18.73
2019-06-08T14:48:59.995Z,18.87
2019-06-08T14:51:48.900Z,19.35
2019-06-08T14:54:24.341Z,22.25
2019-06-08T14:56:54.045Z,19.37
2019-06-08T14:59:25.509Z,26.10
2019-06-08T15:01:56.053Z,19.57
2019-06-08T15:04:33.031Z,18.85
2019-06-08T15:06:58.840Z,11.22
2019-06-08T15:09:31.060Z,18.15
2019-06-08T15:12:01.688Z,28.05
2019-06-08T15:14:35.383Z,21.97
2019-06-08T15:17:05.591Z,21.55
2019-06-08T15:19:36.413Z,22.27
2019-06-08T15:22:08.821Z,18.23
2019-06-08T15:24:39.316Z,19.50
2019-06-08T15:27:09.978Z,21.60
2019-06-08T15:29:42.320Z,17.45
2019-06-08T15:32:12.978Z,15.53
2019-06-08T15:34:43.846Z,21.15
2019-06-08T15:37:15.126Z,22.35
2019-06-08T15:39:48.568Z,17.98
2019-06-08T15:42:18.227Z,18.27
2019-06-08T15:44:50.351Z,20.32
2019-06-08T15:47:22.074Z,17.87
2019-06-08T15:49:54.392Z,20.10
2019-06-08T15:52:26.409Z,16.35
2019-06-08T15:55:01.377Z,18.07
2019-06-08T15:57:35.565Z,21.45
2019-06-08T16:00:09.668Z,19.92
2019-06-08T16:02:37.567Z,21.33
2019-06-08T16:05:08.405Z,17.98
2019-06-08T16:07:38.988Z,19.65
2019-06-08T16:10:10.121Z,17.65
2019-06-08T16:12:42.625Z,20.30
2019-06-08T16:15:15.266Z,15.05
2019-06-08T16:17:51.125Z,19.23
2019-06-08T16:20:23.761Z,19.80
2019-06-08T16:22:54.423Z,25.95
2019-06-08T16:25:25.571Z,22.40
2019-06-08T16:27:56.462Z,16.70
2019-06-08T16:30:28.830Z,20.82
2019-06-08T16:32:59.869Z,20.37
2019-06-08T16:35:33.484Z,18.05
2019-06-08T16:38:04.276Z,20.23
2019-06-08T16:40:36.230Z,23.77
2019-06-08T16:43:07.837Z,25.48
2019-06-08T16:45:39.547Z,21.65
2019-06-08T16:48:10.472Z,16.85
2019-06-08T16:50:42.636Z,16.80
2019-06-08T16:53:13.406Z,17.60
2019-06-08T16:55:44.267Z,17.42
2019-06-08T16:58:15.553Z,21.25
2019-06-08T17:00:47.155Z,23.75
2019-06-08T17:03:17.742Z,18.85
2019-06-08T17:05:48.363Z,20.82
2019-06-08T17:08:19.152Z,20.88
2019-06-08T17:10:52.098Z,16.15
2019-06-08T17:13:24.488Z,18.90
2019-06-08T17:15:57.297Z,20.17
2019-06-08T17:18:29.939Z,19.90
2019-06-08T17:21:00.907Z,23.70
2019-06-08T17:23:32.390Z,26.73
2019-06-08T17:26:03.429Z,25.95
2019-06-08T17:28:35.062Z,16.60
2019-06-08T17:31:06.366Z,21.52
2019-06-08T17:33:37.277Z,21.70
2019-06-08T17:36:09.122Z,18.17
2019-06-08T17:38:39.963Z,23.62
2019-06-08T17:41:10.667Z,18.17
2019-06-08T17:43:42.474Z,17.82
2019-06-08T17:46:13.287Z,23.85
2019-06-08T17:48:44.020Z,20.72
2019-06-08T17:51:16.143Z,23.83
2019-06-08T17:53:46.750Z,20.97
2019-06-08T17:56:17.539Z,19.92
2019-06-08T17:58:49.518Z,13.60
2019-06-08T18:01:21.801Z,19.67
2019-06-08T18:03:52.656Z,17.35
2019-06-08T18:06:23.532Z,23.32
2019-06-08T18:08:54.056Z,15.28
2019-06-08T18:11:24.617Z,14.90
2019-06-08T18:13:55.164Z,16.23
2019-06-08T18:16:27.830Z,17.10
2019-06-08T18:18:58.248Z,19.95
2019-06-08T18:21:28.892Z,16.25
2019-06-08T18:23:59.788Z,20.15
2019-06-08T18:26:30.428Z,20.50
2019-06-08T18:29:01.360Z,19.85
2019-06-08T18:31:34.456Z,25.10
2019-06-08T18:34:11.644Z,18.55
2019-06-08T18:36:43.476Z,20.10
2019-06-08T18:39:14.038Z,20.70
2019-06-08T18:41:45.454Z,17.17
2019-06-08T18:44:17.416Z,19.07
2019-06-08T18:46:48.362Z,18.20
2019-06-08T18:49:19.209Z,24.02
2019-06-08T18:51:52.778Z,17.67
2019-06-08T18:54:27.254Z,20.48
2019-06-08T18:56:57.274Z,18.40
2019-06-08T18:59:28.673Z,19.45
2019-06-08T19:02:00.786Z,19.25
2019-06-08T19:04:31.353Z,25.00
2019-06-08T19:07:03.761Z,16.37
2019-06-08T19:09:37.519Z,16.45
2019-06-08T19:12:19.906Z,26.93
2019-06-08T19:14:52.347Z,25.75
2019-06-08T19:17:23.995Z,22.48
2019-06-08T19:19:57.801Z,13.38
2019-06-08T19:22:30.223Z,27.87
2019-06-08T19:25:00.340Z,21.70
2019-06-08T19:27:30.824Z,16.52
2019-06-08T19:30:01.595Z,16.60
2019-06-08T19:32:32.767Z,25.95
2019-06-08T19:35:03.246Z,21.00
2019-06-08T19:37:34.130Z,16.30
2019-06-08T19:40:07.442Z,23.05
2019-06-08T19:42:47.446Z,23.65
2019-06-08T19:45:10.476Z,22.42
2019-06-08T19:47:41.166Z,20.55
2019-06-08T19:50:12.357Z,23.90
2019-06-08T19:52:46.328Z,18.42
2019-06-08T19:55:18.145Z,17.05
2019-06-08T19:57:51.764Z,24.12
2019-06-08T20:00:22.402Z,20.48
2019-06-08T20:02:55.247Z,23.50
2019-06-08T20:05:28.553Z,22.77
2019-06-08T20:07:59.697Z,24.15
2019-06-08T20:10:30.300Z,23.30
2019-06-08T20:13:02.549Z,21.97
2019-06-08T20:15:33.084Z,21.65
2019-06-08T20:18:03.776Z,27.13
2019-06-08T20:20:34.398Z,24.20
2019-06-08T20:23:09.503Z,22.93
2019-06-08T20:25:38.193Z,23.85
2019-06-08T20:28:09.096Z,30.62
2019-06-08T20:30:42.279Z,21.02
2019-06-08T20:33:12.846Z,29.48
2019-06-08T20:35:45.605Z,23.40
2019-06-08T20:38:17.771Z,20.68
2019-06-08T20:40:50.167Z,21.12
2019-06-08T20:43:21.598Z,23.83
2019-06-08T20:46:29.373Z,24.10
2019-06-08T20:48:59.882Z,23.73
2019-06-08T20:51:38.278Z,18.35
2019-06-08T20:54:09.259Z,26.62
2019-06-08T20:56:40.586Z,22.22
2019-06-08T20:59:11.288Z,23.00
2019-06-08T21:01:43.703Z,22.65
2019-06-08T21:04:27.648Z,26.73
2019-06-08T21:06:59.208Z,27.20
2019-06-08T21:09:30.250Z,30.17
2019-06-08T21:12:00.844Z,23.65
2019-06-08T21:14:31.448Z,30.57
2019-06-08T21:17:02.235Z,22.77
2019-06-08T21:19:33.790Z,27.55
2019-06-08T21:22:04.463Z,24.87
2019-06-08T21:24:37.015Z,23.57
2019-06-08T21:27:08.329Z,24.12
2019-06-08T21:29:49.107Z,26.93
2019-06-08T21:32:13.011Z,27.35
2019-06-08T21:34:43.614Z,26.65
2019-06-08T21:37:14.295Z,28.27
2019-06-08T21:39:50.509Z,31.17
2019-06-08T21:42:21.319Z,27.07
2019-06-08T21:44:54.635Z,26.23
2019-06-08T21:47:27.152Z,27.30
2019-06-08T21:50:00.353Z,21.35
2019-06-08T21:52:31.838Z,29.50
2019-06-08T21:55:02.527Z,17.42
2019-06-08T21:57:33.177Z,24.30
2019-06-08T22:00:27.159Z,20.32
2019-06-08T22:02:42.408Z,24.05
2019-06-08T22:05:13.386Z,18.98
2019-06-08T22:07:43.955Z,23.42
2019-06-08T22:10:14.951Z,20.12
2019-06-08T22:12:48.314Z,24.23
2019-06-08T22:15:19.574Z,28.65
2019-06-08T22:17:51.993Z,24.75
2019-06-08T22:20:23.489Z,24.35
2019-06-08T22:22:55.118Z,27.60
2019-06-08T22:25:27.818Z,20.52
2019-06-08T22:28:00.962Z,22.85
2019-06-08T22:30:39.339Z,17.67
2019-06-08T22:33:05.744Z,19.30
2019-06-08T22:35:37.400Z,22.58
2019-06-08T22:38:08.738Z,20.97
2019-06-08T22:40:40.089Z,23.50
2019-06-08T22:43:10.586Z,25.10
2019-06-08T22:45:41.333Z,28.67
2019-06-08T22:48:12.255Z,26.00
2019-06-08T22:50:42.988Z,28.65
2019-06-08T22:53:13.577Z,21.65
2019-06-08T22:55:44.353Z,28.80
2019-06-08T22:58:14.926Z,29.67
2019-06-08T23:00:52.295Z,27.37
2019-06-08T23:03:19.806Z,25.92
2019-06-08T23:05:50.607Z,21.57
2019-06-08T23:08:22.009Z,26.23
2019-06-08T23:10:54.220Z,23.18
2019-06-08T23:13:24.762Z,31.52
2019-06-08T23:15:59.421Z,23.77
2019-06-08T23:18:27.846Z,27.75
2019-06-08T23:21:01.575Z,27.40
2019-06-08T23:23:31.475Z,27.85
2019-06-08T23:26:03.720Z,26.45
2019-06-08T23:28:37.921Z,27.80
2019-06-08T23:31:21.520Z,29.12
2019-06-08T23:33:43.156Z,33.58
2019-06-08T23:38:48.152Z,26.75
2019-06-08T23:41:19.030Z,27.65
2019-06-08T23:43:49.621Z,34.65
2019-06-08T23:46:20.366Z,23.87
2019-06-08T23:48:50.967Z,27.05
2019-06-08T23:51:21.624Z,25.17
2019-06-08T23:53:53.229Z,29.40
2019-06-08T23:56:23.920Z,23.25
2019-06-08T23:58:54.610Z,29.48
